Time;durP1;ratioP1;P1;durP2;ratioP2;P2;SDS_P1;SDS_P2;PMS_P1;PMS_P2;Temp;Humidity;BMP_temperature;BMP_pressure;BME280_temperature;BME280_humidity;BME280_pressure;Samples;Min_cycle;Max_cycle;Signal;HPM_P1;HPM_P2
2023/08/17 00:01:45;;;;;;;8.20;3.00;;;;;;;20.42;69.01;101109.42;111109;1212;96254;-63
2023/08/17 00:04:11;;;;;;;5.30;2.90;;;;;;;20.43;69.01;101110.23;110532;1212;138557;-63
2023/08/17 00:06:36;;;;;;;4.30;3.20;;;;;;;20.42;69.05;101112.66;111171;1208;96273;-63
2023/08/17 00:09:01;;;;;;;6.50;3.20;;;;;;;20.39;69.14;101111.02;110798;1212;96353;-62
2023/08/17 00:11:26;;;;;;;6.00;3.40;;;;;;;20.39;69.14;101109.23;110923;1209;139875;-61
2023/08/17 00:13:52;;;;;;;4.80;2.90;;;;;;;20.35;69.31;101104.77;111133;1212;96322;-62
2023/08/17 00:16:17;;;;;;;6.90;3.30;;;;;;;20.33;69.46;101105.66;110931;1212;140354;-63
2023/08/17 00:18:43;;;;;;;6.60;2.90;;;;;;;20.31;69.53;101104.15;111185;1209;97839;-62
2023/08/17 00:21:08;;;;;;;4.00;2.70;;;;;;;20.27;69.74;101117.80;111050;1210;96366;-63
2023/08/17 00:23:34;;;;;;;5.00;2.80;;;;;;;20.28;69.95;101127.49;110989;1212;139053;-62
2023/08/17 00:25:59;;;;;;;7.90;3.20;;;;;;;20.32;69.84;101136.45;111157;1212;96313;-61
2023/08/17 00:28:25;;;;;;;4.70;2.80;;;;;;;20.33;69.86;101137.42;110973;1209;138560;-62
2023/08/17 00:30:50;;;;;;;11.20;3.10;;;;;;;20.35;69.87;101142.36;111082;1210;96613;-62
2023/08/17 00:33:16;;;;;;;4.50;3.20;;;;;;;20.37;69.94;101141.49;110997;1212;101573;-62
2023/08/17 00:35:41;;;;;;;8.70;3.40;;;;;;;20.41;70.00;101138.67;110867;1212;139375;-62
2023/08/17 00:38:06;;;;;;;5.40;3.20;;;;;;;20.41;69.92;101140.88;111165;1208;96264;-62
2023/08/17 00:40:31;;;;;;;5.00;2.60;;;;;;;20.39;69.88;101143.38;110938;1211;139443;-62
2023/08/17 00:42:57;;;;;;;9.70;3.40;;;;;;;20.40;70.03;101140.74;110980;1209;97433;-62
2023/08/17 00:45:23;;;;;;;5.80;3.50;;;;;;;20.44;69.95;101139.53;111048;1212;96276;-61
2023/08/17 00:47:49;;;;;;;9.30;3.80;;;;;;;20.46;70.02;101144.69;110915;1212;138238;-62
2023/08/17 00:50:15;;;;;;;4.50;3.00;;;;;;;20.45;70.04;101149.11;111149;1209;97125;-62
2023/08/17 00:52:42;;;;;;;9.10;3.30;;;;;;;20.47;70.05;101146.02;110974;1211;138137;-62
2023/08/17 00:55:09;;;;;;;10.00;2.90;;;;;;;20.48;70.02;101133.26;111134;1212;96307;-64
2023/08/17 00:57:35;;;;;;;8.80;2.90;;;;;;;20.40;70.10;101129.33;111102;1209;138395;-63
2023/08/17 01:00:00;;;;;;;7.40;3.30;;;;;;;20.33;70.40;101135.29;111230;1212;96273;-61
2023/08/17 01:02:26;;;;;;;8.90;3.80;;;;;;;20.28;70.46;101142.40;111189;1219;96324;-62
2023/08/17 01:04:52;;;;;;;9.50;3.40;;;;;;;20.25;70.62;101152.73;110910;1212;138053;-62
2023/08/17 01:07:17;;;;;;;6.30;3.70;;;;;;;20.27;70.56;101160.04;111065;1218;95135;-62
2023/08/17 01:09:42;;;;;;;7.90;3.10;;;;;;;20.26;70.59;101158.09;110762;1208;142264;-62
2023/08/17 01:12:17;;;;;;;5.50;3.30;;;;;;;20.25;70.72;101160.05;111112;1206;96410;-62
2023/08/17 01:14:59;;;;;;;9.00;3.50;;;;;;;20.24;70.91;101154.06;111172;1209;99439;-62
2023/08/17 01:17:31;;;;;;;7.60;3.80;;;;;;;20.24;70.94;101151.16;110839;1208;139116;-63
2023/08/17 01:19:58;;;;;;;6.60;2.90;;;;;;;20.21;71.08;101153.98;111351;1207;96652;-63
2023/08/17 01:22:26;;;;;;;3.50;3.20;;;;;;;20.15;71.16;101158.41;111065;1209;140155;-63
2023/08/17 01:24:57;;;;;;;10.30;3.90;;;;;;;20.09;71.45;101163.95;111114;1211;96260;-64
2023/08/17 01:27:23;;;;;;;10.00;3.00;;;;;;;20.07;71.63;101174.84;111052;1212;99347;-63
2023/08/17 01:29:49;;;;;;;9.10;3.70;;;;;;;20.04;71.79;101189.92;110904;1209;138841;-63
2023/08/17 01:32:42;;;;;;;12.00;4.20;;;;;;;20.01;71.73;101206.98;111134;1211;96304;-62
2023/08/17 01:35:28;;;;;;;7.80;3.50;;;;;;;19.93;71.93;101248.64;110935;1215;139012;-63
2023/08/17 01:37:58;;;;;;;10.30;4.00;;;;;;;19.77;72.08;101291.80;111113;1211;98679;-63
2023/08/17 01:40:26;;;;;;;10.20;3.40;;;;;;;19.60;72.21;101317.88;110972;1211;138206;-63
2023/08/17 01:42:53;;;;;;;10.60;3.60;;;;;;;19.40;72.60;101333.05;111136;1209;96253;-63
2023/08/17 01:45:18;;;;;;;12.30;4.40;;;;;;;19.19;72.90;101335.18;111066;1209;97065;-64
2023/08/17 01:47:43;;;;;;;11.60;4.60;;;;;;;18.92;73.01;101328.00;111021;1211;138871;-63
2023/08/17 01:50:09;;;;;;;10.60;4.60;;;;;;;18.58;73.75;101345.09;110985;1212;96266;-63
2023/08/17 01:52:35;;;;;;;9.70;4.90;;;;;;;18.35;74.35;101361.60;111015;1212;140285;-63
2023/08/17 01:55:00;;;;;;;13.70;5.30;;;;;;;18.20;74.71;101364.74;111170;1212;96367;-63
2023/08/17 01:57:25;;;;;;;14.00;4.20;;;;;;;18.02;75.48;101355.96;110982;1211;96359;-63
2023/08/17 01:59:51;;;;;;;7.20;4.60;;;;;;;17.88;76.73;101344.02;110955;1209;138041;-63
2023/08/17 02:02:17;;;;;;;9.90;4.80;;;;;;;17.77;77.59;101330.39;111125;1211;96436;-63
2023/08/17 02:04:42;;;;;;;14.30;5.10;;;;;;;17.72;78.60;101335.05;110964;1212;139924;-63
2023/08/17 02:07:07;;;;;;;11.20;4.80;;;;;;;17.66;79.00;101338.84;111049;1208;96336;-63
2023/08/17 02:09:33;;;;;;;8.30;5.80;;;;;;;17.64;79.61;101336.61;111150;1225;96280;-64
2023/08/17 02:11:58;;;;;;;10.30;5.30;;;;;;;17.62;80.04;101332.78;111000;1209;140230;-64
2023/08/17 02:14:23;;;;;;;10.40;5.40;;;;;;;17.63;80.61;101318.09;111151;1211;96374;-64
2023/08/17 02:16:48;;;;;;;10.90;7.00;;;;;;;17.63;81.14;101300.88;110884;1211;138858;-64
2023/08/17 02:19:14;;;;;;;8.90;6.90;;;;;;;17.61;81.43;101308.62;111138;1212;97872;-65
2023/08/17 02:21:39;;;;;;;18.20;9.00;;;;;;;17.60;81.75;101326.73;111025;1209;138587;-66
2023/08/17 02:24:05;;;;;;;18.10;8.50;;;;;;;17.64;82.17;101331.92;111169;1211;96305;-66
2023/08/17 02:26:30;;;;;;;13.20;9.20;;;;;;;17.69;82.26;101319.02;111417;1211;96276;-66
2023/08/17 02:28:55;;;;;;;11.00;6.50;;;;;;;17.69;82.58;101290.42;111545;1209;139704;-66
2023/08/17 02:31:21;;;;;;;11.20;8.10;;;;;;;17.65;83.33;101271.14;111694;1212;96320;-66
2023/08/17 02:33:46;;;;;;;10.10;8.00;;;;;;;17.61;83.84;101264.34;111524;1212;139093;-66
2023/08/17 02:36:11;;;;;;;10.20;6.80;;;;;;;17.59;84.28;101264.09;111659;1211;96257;-66
2023/08/17 02:38:36;;;;;;;14.50;6.70;;;;;;;17.59;85.23;101265.96;111624;1212;96814;-67
2023/08/17 02:41:01;;;;;;;14.40;7.00;;;;;;;17.53;85.69;101252.21;111586;1209;138718;-67
2023/08/17 02:43:27;;;;;;;13.10;7.60;;;;;;;17.54;86.11;101246.20;111623;1208;96321;-67
2023/08/17 02:45:52;;;;;;;8.70;6.30;;;;;;;17.55;86.33;101230.78;111299;1209;139182;-67
2023/08/17 02:48:18;;;;;;;10.50;7.50;;;;;;;17.54;86.79;101209.66;111647;1209;96442;-66
2023/08/17 02:50:43;;;;;;;10.80;6.80;;;;;;;17.52;87.56;101181.95;111610;1209;96574;-67
2023/08/17 02:53:09;;;;;;;12.60;7.20;;;;;;;17.47;87.83;101173.79;111512;1211;138212;-66
2023/08/17 02:55:34;;;;;;;12.20;6.60;;;;;;;17.39;88.31;101171.39;111686;1212;96353;-66
2023/08/17 02:57:59;;;;;;;12.60;7.20;;;;;;;17.35;88.64;101173.84;111538;1211;140010;-66
2023/08/17 03:00:24;;;;;;;9.30;5.90;;;;;;;17.33;89.03;101171.29;111686;1211;96437;-67
2023/08/17 03:02:50;;;;;;;9.90;6.00;;;;;;;17.24;89.43;101160.08;111651;1211;96807;-67
2023/08/17 03:05:15;;;;;;;7.50;4.80;;;;;;;17.14;89.73;101146.96;111562;1218;138163;-67
2023/08/17 03:07:40;;;;;;;13.10;7.00;;;;;;;17.08;90.28;101134.54;111621;1212;96264;-68
2023/08/17 03:10:06;;;;;;;9.10;5.50;;;;;;;17.05;90.41;101127.70;111503;1208;138854;-68
2023/08/17 03:12:31;;;;;;;12.90;6.50;;;;;;;17.03;90.73;101138.63;111691;1212;96388;-67
2023/08/17 03:14:56;;;;;;;7.60;4.30;;;;;;;17.04;91.08;101154.45;111606;1212;96194;-68
2023/08/17 03:17:22;;;;;;;8.10;5.20;;;;;;;17.04;91.34;101168.89;111365;1212;137982;-68
2023/08/17 03:19:47;;;;;;;9.50;5.50;;;;;;;17.03;91.79;101175.86;111657;1206;96414;-68
2023/08/17 03:22:12;;;;;;;15.00;6.90;;;;;;;17.00;91.87;101178.95;111576;1211;138132;-68
2023/08/17 03:24:37;;;;;;;18.70;12.10;;;;;;;17.02;92.24;101174.23;111632;1211;96212;-67
2023/08/17 03:27:03;;;;;;;17.50;9.10;;;;;;;17.02;92.31;101177.89;111638;1211;96274;-67
2023/08/17 03:29:28;;;;;;;13.40;8.30;;;;;;;17.02;92.38;101191.23;111577;1209;140776;-67
2023/08/17 03:31:53;;;;;;;16.00;9.80;;;;;;;17.04;92.63;101198.67;111641;1212;96298;-67
2023/08/17 03:34:19;;;;;;;15.90;10.20;;;;;;;17.06;92.58;101205.80;111624;1207;138661;-68
2023/08/17 03:36:44;;;;;;;15.30;10.20;;;;;;;17.05;92.83;101235.69;111681;1209;97523;-68
2023/08/17 03:39:10;;;;;;;19.80;11.40;;;;;;;17.04;93.06;101265.86;111579;1208;96319;-68
2023/08/17 03:41:36;;;;;;;17.50;11.00;;;;;;;17.04;93.28;101292.05;111533;1211;139373;-68
2023/08/17 03:44:03;;;;;;;23.10;11.70;;;;;;;17.04;93.45;101304.31;111643;1209;96298;-68
2023/08/17 03:46:29;;;;;;;17.20;11.60;;;;;;;17.04;93.90;101306.49;111451;1210;140422;-68
2023/08/17 03:48:54;;;;;;;17.60;11.00;;;;;;;17.06;93.90;101308.73;111645;1211;96365;-68
2023/08/17 03:51:19;;;;;;;15.30;8.70;;;;;;;17.08;93.95;101313.45;111625;1209;96272;-68
2023/08/17 03:53:44;;;;;;;19.30;9.80;;;;;;;17.05;94.18;101310.93;111500;1211;138253;-68
2023/08/17 03:56:10;;;;;;;21.70;10.80;;;;;;;17.04;94.32;101318.41;111671;1211;96313;-67
2023/08/17 03:58:35;;;;;;;15.70;11.10;;;;;;;17.06;94.81;101335.45;111501;1209;139727;-68
2023/08/17 04:01:01;;;;;;;22.30;11.50;;;;;;;17.09;94.97;101354.79;111659;1208;96296;-67
2023/08/17 04:03:26;;;;;;;19.10;10.70;;;;;;;17.08;94.84;101363.17;111599;1209;101274;-68
2023/08/17 04:05:52;;;;;;;21.60;13.00;;;;;;;17.06;94.99;101368.13;111505;1211;139634;-68
2023/08/17 04:08:17;;;;;;;22.30;11.30;;;;;;;17.06;95.00;101375.02;111665;1211;96334;-69
2023/08/17 04:10:42;;;;;;;20.10;10.80;;;;;;;17.01;95.07;101390.29;111548;1211;139115;-68
2023/08/17 04:13:07;;;;;;;18.50;10.90;;;;;;;17.03;95.51;101394.65;111476;1212;96381;-68
2023/08/17 04:15:33;;;;;;;19.90;11.30;;;;;;;17.09;95.62;101380.04;111641;1208;96280;-68
2023/08/17 04:17:58;;;;;;;17.90;11.90;;;;;;;17.11;95.45;101362.06;111567;1210;138257;-68
2023/08/17 04:20:25;;;;;;;17.50;9.80;;;;;;;17.03;95.38;101330.41;111600;1211;109439;-69
2023/08/17 04:22:51;;;;;;;16.30;11.00;;;;;;;16.96;95.78;101319.10;111522;1211;138437;-69
2023/08/17 04:25:16;;;;;;;17.80;10.80;;;;;;;16.92;96.25;101312.30;111589;1209;96271;-67
2023/08/17 04:27:41;;;;;;;14.60;9.70;;;;;;;16.94;96.71;101292.66;111543;1211;138923;-67
2023/08/17 04:30:07;;;;;;;13.80;10.20;;;;;;;16.95;96.67;101269.85;111612;1211;96353;-67
2023/08/17 04:32:33;;;;;;;19.10;9.80;;;;;;;16.92;96.89;101265.36;111621;1207;96300;-67
2023/08/17 04:34:58;;;;;;;14.50;9.40;;;;;;;16.91;96.99;101250.61;111541;1209;138045;-67
2023/08/17 04:37:24;;;;;;;12.80;7.00;;;;;;;16.88;96.88;101222.44;111609;1209;96264;-68
2023/08/17 04:39:49;;;;;;;13.70;6.90;;;;;;;16.75;96.92;101191.80;111531;1208;140616;-68
2023/08/17 04:42:15;;;;;;;9.70;7.70;;;;;;;16.65;97.29;101166.65;111519;1208;96408;-68
2023/08/17 04:44:40;;;;;;;13.80;7.80;;;;;;;16.59;97.43;101130.19;111589;1209;96264;-67
2023/08/17 04:47:06;;;;;;;8.00;6.10;;;;;;;16.49;97.71;101118.08;111533;1210;139263;-67
2023/08/17 04:49:31;;;;;;;8.10;5.50;;;;;;;16.44;98.01;101133.95;111575;1208;96363;-68
2023/08/17 04:51:56;;;;;;;7.60;5.70;;;;;;;16.38;98.16;101139.88;111476;1211;138314;-68
2023/08/17 04:54:22;;;;;;;8.80;5.70;;;;;;;16.30;98.22;101142.00;111573;1211;97199;-68
2023/08/17 04:56:47;;;;;;;8.80;5.10;;;;;;;16.28;98.52;101148.23;111600;1211;96389;-68
2023/08/17 04:59:13;;;;;;;9.00;5.90;;;;;;;16.24;98.64;101147.95;111538;1211;138638;-68
2023/08/17 05:01:38;;;;;;;10.10;5.30;;;;;;;16.21;98.81;101143.98;111577;1209;96256;-68
2023/08/17 05:04:04;;;;;;;8.00;4.90;;;;;;;16.18;98.99;101130.83;111372;1212;138315;-68
2023/08/17 05:06:29;;;;;;;12.60;5.80;;;;;;;16.15;99.22;101132.25;111538;1211;99996;-68
2023/08/17 05:08:56;;;;;;;9.60;6.00;;;;;;;16.18;99.43;101138.74;111555;1209;96302;-68
2023/08/17 05:11:21;;;;;;;8.90;5.90;;;;;;;16.19;99.49;101137.04;111473;1211;138892;-68
2023/08/17 05:13:46;;;;;;;8.70;5.60;;;;;;;16.21;99.54;101128.98;111605;1208;96247;-68
2023/08/17 05:16:11;;;;;;;6.60;4.10;;;;;;;16.20;99.75;101113.23;111476;1211;138511;-68
2023/08/17 05:18:36;;;;;;;12.60;6.00;;;;;;;16.21;100.00;101110.80;111609;1225;96271;-68
2023/08/17 05:21:02;;;;;;;7.70;5.20;;;;;;;16.20;100.00;101109.05;111574;1208;96393;-68
2023/08/17 05:23:27;;;;;;;6.70;5.00;;;;;;;16.21;100.00;101112.58;111543;1211;138816;-69
2023/08/17 05:25:52;;;;;;;10.10;4.70;;;;;;;16.19;100.00;101112.38;111548;1209;96218;-67
2023/08/17 05:28:17;;;;;;;6.50;4.40;;;;;;;16.14;100.00;101122.59;111486;1209;140016;-68
2023/08/17 05:30:43;;;;;;;5.90;4.50;;;;;;;16.11;100.00;101125.29;111565;1208;96171;-69
2023/08/17 05:33:09;;;;;;;8.50;4.60;;;;;;;16.09;100.00;101130.79;111537;1211;96253;-69
2023/08/17 05:35:34;;;;;;;11.90;5.50;;;;;;;16.08;100.00;101129.05;111509;1215;138984;-69
2023/08/17 05:37:59;;;;;;;7.20;4.40;;;;;;;16.09;100.00;101140.17;111613;1208;96273;-69
2023/08/17 05:40:25;;;;;;;6.00;4.60;;;;;;;16.10;100.00;101141.23;111545;1208;139713;-69
2023/08/17 05:42:51;;;;;;;7.50;4.70;;;;;;;16.08;100.00;101149.79;111643;1211;107471;-69
2023/08/17 05:45:16;;;;;;;13.00;5.40;;;;;;;16.12;100.00;101156.40;111674;1206;96347;-69
2023/08/17 05:47:41;;;;;;;7.80;5.00;;;;;;;16.13;100.00;101156.55;111715;1208;138522;-69
2023/08/17 05:50:07;;;;;;;9.10;4.30;;;;;;;16.13;100.00;101145.86;111713;1208;96297;-68
2023/08/17 05:52:32;;;;;;;9.80;5.30;;;;;;;16.14;100.00;101136.78;111577;1211;139123;-68
2023/08/17 05:54:57;;;;;;;15.00;6.60;;;;;;;16.16;100.00;101141.76;111681;1209;96464;-68
2023/08/17 05:57:23;;;;;;;14.90;6.30;;;;;;;16.19;100.00;101148.39;111691;1211;98195;-69
2023/08/17 05:59:48;;;;;;;11.30;7.00;;;;;;;16.21;100.00;101155.52;111668;1211;140916;-68
2023/08/17 06:02:13;;;;;;;12.40;5.40;;;;;;;16.19;100.00;101160.88;111637;1209;96333;-68
2023/08/17 06:04:39;;;;;;;9.90;6.10;;;;;;;16.15;100.00;101161.80;111654;1209;138805;-67
2023/08/17 06:07:04;;;;;;;5.60;5.00;;;;;;;16.13;100.00;101155.64;111726;1208;96360;-69
2023/08/17 06:09:29;;;;;;;9.50;4.70;;;;;;;16.10;100.00;101158.13;111689;1211;96628;-67
2023/08/17 06:11:54;;;;;;;10.50;6.70;;;;;;;16.06;100.00;101149.16;111612;1208;138123;-68
2023/08/17 06:14:20;;;;;;;11.40;5.60;;;;;;;16.09;100.00;101145.96;111659;1209;96242;-67
2023/08/17 06:16:45;;;;;;;12.80;5.10;;;;;;;16.12;100.00;101134.40;111520;1211;139869;-66
2023/08/17 06:19:10;;;;;;;8.40;5.50;;;;;;;16.16;100.00;101121.00;111534;1209;97591;-67
2023/08/17 06:21:36;;;;;;;8.20;5.00;;;;;;;16.16;100.00;101119.95;111569;1208;138242;-68
2023/08/17 06:24:01;;;;;;;10.50;5.80;;;;;;;16.11;100.00;101131.24;111627;1208;96388;-67
2023/08/17 06:26:26;;;;;;;9.80;5.00;;;;;;;16.07;100.00;101153.80;111547;1208;95970;-67
2023/08/17 06:28:51;;;;;;;8.60;4.50;;;;;;;16.07;100.00;101158.30;111539;1208;138356;-67
2023/08/17 06:31:17;;;;;;;10.30;5.00;;;;;;;16.07;100.00;101157.60;111541;1209;96568;-68
2023/08/17 06:33:42;;;;;;;8.30;5.10;;;;;;;16.08;100.00;101151.91;111535;1208;138441;-67
2023/08/17 06:36:07;;;;;;;8.50;5.00;;;;;;;16.10;100.00;101143.54;111379;1210;96712;-68
2023/08/17 06:38:33;;;;;;;11.20;5.30;;;;;;;16.10;100.00;101138.11;111661;1208;95101;-68
2023/08/17 06:40:58;;;;;;;11.50;5.80;;;;;;;16.07;100.00;101135.80;111467;1211;138261;-67
2023/08/17 06:43:23;;;;;;;16.90;6.60;;;;;;;16.08;100.00;101132.85;111509;1211;96740;-66
2023/08/17 06:45:48;;;;;;;15.00;6.90;;;;;;;16.10;100.00;101143.76;111501;1209;139112;-66
2023/08/17 06:48:14;;;;;;;8.30;5.10;;;;;;;16.10;100.00;101107.13;111530;1211;96382;-66
2023/08/17 06:50:39;;;;;;;12.60;5.20;;;;;;;16.01;100.00;101110.91;111603;1211;96323;-66
2023/08/17 06:53:04;;;;;;;10.30;4.70;;;;;;;15.95;100.00;101118.63;111470;1209;138435;-66
2023/08/17 06:55:30;;;;;;;7.80;4.90;;;;;;;15.97;100.00;101128.45;111528;1207;96059;-68
2023/08/17 06:57:55;;;;;;;9.60;4.90;;;;;;;16.01;100.00;101133.77;111489;1211;140317;-67
2023/08/17 07:00:21;;;;;;;9.60;5.00;;;;;;;16.04;100.00;101146.25;111554;1209;96356;-67
2023/08/17 07:02:50;;;;;;;9.30;5.40;;;;;;;16.08;100.00;101151.97;111584;1208;97791;-67
2023/08/17 07:05:15;;;;;;;10.20;6.10;;;;;;;16.10;100.00;101154.18;111332;1209;138922;-67
2023/08/17 07:07:42;;;;;;;8.40;5.30;;;;;;;16.14;100.00;101156.64;111473;1208;97221;-67
2023/08/17 07:10:10;;;;;;;14.80;5.90;;;;;;;16.18;100.00;101159.65;111375;1211;139393;-68
2023/08/17 07:12:39;;;;;;;10.00;6.70;;;;;;;16.25;100.00;101169.51;111527;1208;96277;-66
2023/08/17 07:15:06;;;;;;;8.60;5.70;;;;;;;16.36;100.00;101174.08;111582;1206;96482;-68
2023/08/17 07:17:31;;;;;;;12.00;6.70;;;;;;;16.43;100.00;101178.39;111466;1209;138920;-68
2023/08/17 07:19:57;;;;;;;12.10;6.30;;;;;;;16.43;100.00;101178.35;111589;1212;96325;-68
2023/08/17 07:22:22;;;;;;;13.60;6.40;;;;;;;16.50;100.00;101178.65;111417;1212;138893;-68
2023/08/17 07:24:47;;;;;;;6.80;4.70;;;;;;;16.56;100.00;101183.54;111546;1208;96238;-68
2023/08/17 07:27:12;;;;;;;5.70;4.70;;;;;;;16.58;100.00;101181.61;111468;1214;96216;-68
2023/08/17 07:29:38;;;;;;;9.70;5.00;;;;;;;16.55;100.00;101189.18;111448;1212;139538;-67
2023/08/17 07:32:03;;;;;;;10.00;5.50;;;;;;;16.58;100.00;101193.55;111620;1209;96331;-68
2023/08/17 07:34:31;;;;;;;18.10;5.80;;;;;;;16.62;100.00;101194.38;111413;1211;138382;-68
2023/08/17 07:36:57;;;;;;;9.00;6.20;;;;;;;16.67;100.00;101197.71;111610;1208;96198;-69
2023/08/17 07:39:22;;;;;;;16.40;6.90;;;;;;;16.78;100.00;101195.77;111541;1209;95218;-69
2023/08/17 07:41:47;;;;;;;11.30;5.30;;;;;;;16.91;100.00;101199.17;111463;1209;138894;-69
2023/08/17 07:44:13;;;;;;;13.20;7.00;;;;;;;16.99;100.00;101195.98;111531;1211;95125;-69
2023/08/17 07:46:38;;;;;;;11.00;7.10;;;;;;;17.10;100.00;101191.48;111550;1209;138336;-69
2023/08/17 07:49:03;;;;;;;10.90;7.10;;;;;;;17.16;100.00;101198.31;111533;1207;96552;-69
2023/08/17 07:51:31;;;;;;;11.30;5.40;;;;;;;17.21;100.00;101203.42;111587;1211;96582;-69
2023/08/17 07:53:57;;;;;;;14.50;4.80;;;;;;;17.18;100.00;101204.89;111499;1209;138244;-68
2023/08/17 07:56:22;;;;;;;9.10;5.40;;;;;;;17.21;100.00;101201.98;111641;1213;96443;-69
2023/08/17 07:58:47;;;;;;;6.90;4.80;;;;;;;17.30;100.00;101196.55;111473;1211;138816;-68
2023/08/17 08:01:12;;;;;;;5.60;4.90;;;;;;;17.36;100.00;101195.66;111571;1208;96337;-67
2023/08/17 08:03:38;;;;;;;8.50;4.80;;;;;;;17.44;100.00;101192.42;111351;1209;138237;-67
2023/08/17 08:06:03;;;;;;;8.30;5.10;;;;;;;17.56;100.00;101199.61;111500;1208;96466;-67
2023/08/17 08:08:28;;;;;;;7.20;4.30;;;;;;;17.69;100.00;101199.01;111597;1208;96221;-67
2023/08/17 08:10:54;;;;;;;12.40;6.30;;;;;;;17.78;100.00;101202.72;111424;1208;139152;-67
2023/08/17 08:13:19;;;;;;;7.60;5.10;;;;;;;17.93;100.00;101207.71;111634;1211;96355;-68
2023/08/17 08:15:45;;;;;;;12.50;5.60;;;;;;;18.03;100.00;101216.84;111373;1211;140076;-73
2023/08/17 08:18:10;;;;;;;8.90;4.70;;;;;;;18.10;100.00;101217.46;111467;1208;96414;-68
2023/08/17 08:20:35;;;;;;;9.10;4.80;;;;;;;18.07;100.00;101217.84;111560;1211;95131;-68
2023/08/17 08:23:01;;;;;;;7.40;4.90;;;;;;;18.11;100.00;101207.62;111361;1208;138885;-68
2023/08/17 08:25:26;;;;;;;12.20;4.90;;;;;;;18.21;100.00;101201.02;111481;1209;96254;-68
2023/08/17 08:27:51;;;;;;;10.40;5.60;;;;;;;18.29;100.00;101207.86;111334;1209;139359;-67
2023/08/17 08:30:18;;;;;;;8.70;5.10;;;;;;;18.31;100.00;101208.43;111478;1211;98168;-68
2023/08/17 08:32:43;;;;;;;11.50;5.40;;;;;;;18.34;100.00;101215.64;111437;1208;96324;-68
2023/08/17 08:35:08;;;;;;;7.90;4.80;;;;;;;18.36;100.00;101215.50;111319;1211;139046;-67
2023/08/17 08:37:33;;;;;;;9.20;4.90;;;;;;;18.39;100.00;101216.22;111567;1208;96263;-67
2023/08/17 08:39:59;;;;;;;8.50;4.60;;;;;;;18.47;100.00;101214.25;111278;1208;139602;-65
2023/08/17 08:42:24;;;;;;;5.80;4.70;;;;;;;18.53;100.00;101211.84;111076;1211;96237;-65
2023/08/17 08:44:50;;;;;;;6.90;4.10;;;;;;;18.55;100.00;101214.08;110950;1211;101402;-66
2023/08/17 08:47:20;;;;;;;10.20;5.10;;;;;;;18.57;100.00;101216.83;110831;1216;141391;-67
2023/08/17 08:50:05;;;;;;;6.80;4.60;;;;;;;18.58;100.00;101224.94;110909;1211;99572;-67
2023/08/17 08:52:36;;;;;;;11.00;4.80;;;;;;;18.57;100.00;101226.04;111231;1211;139167;-67
2023/08/17 08:55:15;;;;;;;11.30;5.90;;;;;;;18.56;100.00;101226.81;110921;1211;96285;-66
2023/08/17 08:57:42;;;;;;;6.40;4.60;;;;;;;18.49;100.00;101229.44;110917;1209;138761;-65
2023/08/17 09:00:09;;;;;;;8.50;4.40;;;;;;;18.52;100.00;101227.45;111025;1211;96259;-64
2023/08/17 09:02:35;;;;;;;12.60;5.60;;;;;;;18.59;100.00;101225.77;111176;1213;95977;-64
2023/08/17 09:05:01;;;;;;;10.10;5.80;;;;;;;18.70;100.00;101227.05;110887;1212;138892;-64
2023/08/17 09:07:29;;;;;;;7.20;4.10;;;;;;;18.82;100.00;101224.55;111144;1211;96534;-65
2023/08/17 09:09:55;;;;;;;13.10;4.80;;;;;;;18.93;100.00;101219.28;110896;1208;139195;-64
2023/08/17 09:12:22;;;;;;;9.60;5.20;;;;;;;19.02;100.00;101221.35;111040;1211;97882;-64
2023/08/17 09:14:47;;;;;;;11.70;5.50;;;;;;;19.09;100.00;101222.50;111071;1208;96378;-65
2023/08/17 09:17:12;;;;;;;13.80;5.10;;;;;;;19.18;100.00;101226.24;110877;1208;138737;-66
2023/08/17 09:19:37;;;;;;;13.90;6.10;;;;;;;19.20;100.00;101217.58;110826;1211;96814;-65
2023/08/17 09:22:03;;;;;;;9.50;5.50;;;;;;;19.19;100.00;101213.52;110808;1208;139691;-65
2023/08/17 09:24:36;;;;;;;11.80;4.30;;;;;;;19.17;100.00;101208.55;110975;1209;96516;-65
2023/08/17 09:27:02;;;;;;;11.00;5.00;;;;;;;19.14;100.00;101208.70;111045;1209;101113;-66
2023/08/17 09:29:33;;;;;;;10.30;4.60;;;;;;;19.20;100.00;101210.13;110818;1212;138723;-65
2023/08/17 09:32:04;;;;;;;9.20;4.90;;;;;;;19.34;100.00;101216.23;110952;1208;99385;-65
2023/08/17 09:34:31;;;;;;;10.00;4.90;;;;;;;19.38;100.00;101220.42;110766;1211;138513;-66
2023/08/17 09:37:01;;;;;;;12.10;5.00;;;;;;;19.35;100.00;101220.48;111083;1211;96353;-65
2023/08/17 09:39:26;;;;;;;9.10;5.00;;;;;;;19.36;100.00;101221.13;110976;1211;102508;-65
2023/08/17 09:41:55;;;;;;;9.80;5.10;;;;;;;19.32;100.00;101222.15;110745;1213;138610;-66
2023/08/17 09:44:20;;;;;;;7.80;5.30;;;;;;;19.29;100.00;101225.81;111025;1211;96124;-65
2023/08/17 09:46:46;;;;;;;10.50;5.40;;;;;;;19.45;100.00;101226.48;110884;1211;138798;-65
2023/08/17 09:49:11;;;;;;;7.90;5.50;;;;;;;19.61;100.00;101221.89;110988;1211;102022;-65
2023/08/17 09:51:37;;;;;;;9.50;5.40;;;;;;;19.74;100.00;101224.92;110932;1208;96273;-65
2023/08/17 09:54:02;;;;;;;10.50;5.00;;;;;;;19.69;100.00;101222.73;110905;1211;139994;-65
2023/08/17 09:56:28;;;;;;;8.90;5.50;;;;;;;19.70;100.00;101223.40;111236;1209;95783;-64
2023/08/17 09:58:54;;;;;;;9.10;5.40;;;;;;;19.70;100.00;101214.88;110783;1212;139809;-65
2023/08/17 10:01:22;;;;;;;13.10;6.00;;;;;;;19.65;100.00;101211.42;110973;1211;97127;-64
2023/08/17 10:03:49;;;;;;;11.40;5.60;;;;;;;19.72;100.00;101210.56;111064;1209;140356;-64
2023/08/17 10:06:24;;;;;;;10.00;5.80;;;;;;;19.84;100.00;101207.54;110854;1213;96327;-65
2023/08/17 10:08:54;;;;;;;11.80;5.20;;;;;;;20.01;100.00;101203.00;110853;1211;101691;-65
2023/08/17 10:11:21;;;;;;;9.60;5.80;;;;;;;20.15;100.00;101201.08;110853;1211;138704;-66
2023/08/17 10:14:19;;;;;;;9.00;5.60;;;;;;;20.17;100.00;101197.45;110944;1211;96532;-65
2023/08/17 10:16:49;;;;;;;9.20;5.10;;;;;;;20.26;100.00;101199.17;110788;1211;138655;-65
2023/08/17 10:19:38;;;;;;;6.60;5.20;;;;;;;20.38;100.00;101199.48;110955;1211;96109;-67
2023/08/17 10:22:15;;;;;;;8.50;6.80;;;;;;;20.54;100.00;101202.34;110868;1211;139111;-64
2023/08/17 10:24:41;;;;;;;9.60;5.50;;;;;;;20.63;100.00;101198.56;110918;1212;96230;-65
2023/08/17 10:27:07;;;;;;;8.60;6.30;;;;;;;20.74;100.00;101193.88;110979;1211;96420;-64
2023/08/17 10:29:33;;;;;;;11.80;6.50;;;;;;;20.93;100.00;101194.38;111070;1211;141725;-64
2023/08/17 10:32:01;;;;;;;9.20;5.80;;;;;;;21.10;100.00;101189.04;110978;1213;101334;-65
2023/08/17 10:34:27;;;;;;;10.80;6.60;;;;;;;21.26;99.98;101189.36;110896;1209;140445;-64
2023/08/17 10:36:57;;;;;;;9.10;5.60;;;;;;;21.38;99.74;101185.50;111163;1211;96579;-64
2023/08/17 10:39:27;;;;;;;13.10;6.90;;;;;;;21.51;99.72;101179.75;110965;1211;96250;-64
2023/08/17 10:41:54;;;;;;;10.00;5.70;;;;;;;21.57;99.05;101180.73;110968;1211;137975;-64
2023/08/17 10:44:44;;;;;;;13.20;6.00;;;;;;;21.60;98.79;101181.94;111053;1211;96267;-64
2023/08/17 10:47:29;;;;;;;10.80;5.60;;;;;;;21.81;99.78;101179.84;110998;1211;138283;-64
2023/08/17 10:49:57;;;;;;;12.80;7.00;;;;;;;22.07;99.65;101175.90;111118;1211;99439;-65
2023/08/17 10:52:28;;;;;;;9.30;7.00;;;;;;;22.23;98.99;101168.59;110946;1211;138118;-64
2023/08/17 10:54:55;;;;;;;13.10;6.50;;;;;;;22.42;98.97;101170.24;111120;1208;96736;-65
2023/08/17 10:57:45;;;;;;;10.70;5.50;;;;;;;22.54;98.23;101172.48;111068;1209;96363;-64
2023/08/17 11:00:26;;;;;;;12.40;6.60;;;;;;;22.55;97.01;101168.39;111097;1210;96273;-65
2023/08/17 11:03:00;;;;;;;8.40;5.70;;;;;;;22.57;96.86;101167.50;111089;1211;99459;-65